sensor_id;sensor_type;location;lat;lon;timestamp;pressure;altitude;pressure_sealevel;temperature;humidity
80853;BME280;70270;43.434;28.338;2023-07-29T00:02:36;99886.53;;;23.15;60.49
80853;BME280;70270;43.434;28.338;2023-07-29T00:05:21;99894.22;;;22.84;62.14
80853;BME280;70270;43.434;28.338;2023-07-29T00:08:06;99896.50;;;22.72;62.27
80853;BME280;70270;43.434;28.338;2023-07-29T00:10:51;99881.66;;;22.63;61.82
80853;BME280;70270;43.434;28.338;2023-07-29T00:13:36;99867.88;;;22.53;62.08
80853;BME280;70270;43.434;28.338;2023-07-29T00:16:25;99867.97;;;22.43;62.00
80853;BME280;70270;43.434;28.338;2023-07-29T00:19:09;99880.22;;;22.21;62.73
80853;BME280;70270;43.434;28.338;2023-07-29T00:21:53;99871.34;;;22.29;62.34
80853;BME280;70270;43.434;28.338;2023-07-29T00:24:39;99866.56;;;22.40;61.87
80853;BME280;70270;43.434;28.338;2023-07-29T00:27:25;99851.50;;;22.17;62.42
80853;BME280;70270;43.434;28.338;2023-07-29T00:30:11;99870.66;;;22.53;61.37
80853;BME280;70270;43.434;28.338;2023-07-29T00:32:56;99860.19;;;22.45;61.92
80853;BME280;70270;43.434;28.338;2023-07-29T00:35:40;99856.84;;;22.48;61.22
80853;BME280;70270;43.434;28.338;2023-07-29T00:38:25;99865.06;;;22.63;60.93
80853;BME280;70270;43.434;28.338;2023-07-29T00:41:09;99862.25;;;22.68;60.66
80853;BME280;70270;43.434;28.338;2023-07-29T00:43:59;99855.84;;;22.33;62.00
80853;BME280;70270;43.434;28.338;2023-07-29T00:46:46;99755.03;;;21.87;61.20
80853;BME280;70270;43.434;28.338;2023-07-29T00:49:32;99767.00;;;21.67;62.11
80853;BME280;70270;43.434;28.338;2023-07-29T00:52:17;99861.13;;;22.30;61.88
80853;BME280;70270;43.434;28.338;2023-07-29T00:55:02;99852.38;;;22.03;62.76
80853;BME280;70270;43.434;28.338;2023-07-29T00:57:48;99832.81;;;22.04;62.42
80853;BME280;70270;43.434;28.338;2023-07-29T01:00:35;99861.16;;;22.15;62.35
80853;BME280;70270;43.434;28.338;2023-07-29T01:03:22;99770.16;;;22.05;61.02
80853;BME280;70270;43.434;28.338;2023-07-29T01:13:01;99835.16;;;22.75;60.18
80853;BME280;70270;43.434;28.338;2023-07-29T01:15:58;99790.03;;;22.51;59.97
80853;BME280;70270;43.434;28.338;2023-07-29T01:18:47;99824.56;;;22.87;59.50
80853;BME280;70270;43.434;28.338;2023-07-29T01:21:35;99736.34;;;22.28;59.46
80853;BME280;70270;43.434;28.338;2023-07-29T01:24:19;99823.09;;;22.61;60.37
80853;BME280;70270;43.434;28.338;2023-07-29T01:27:04;99825.59;;;22.96;59.17
80853;BME280;70270;43.434;28.338;2023-07-29T01:29:50;99829.06;;;22.78;59.61
80853;BME280;70270;43.434;28.338;2023-07-29T01:32:42;99833.47;;;22.79;59.94
80853;BME280;70270;43.434;28.338;2023-07-29T01:35:32;99725.44;;;22.47;59.33
80853;BME280;70270;43.434;28.338;2023-07-29T01:38:19;99806.66;;;23.13;58.40
80853;BME280;70270;43.434;28.338;2023-07-29T01:41:07;99810.38;;;23.27;58.60
80853;BME280;70270;43.434;28.338;2023-07-29T01:43:53;99820.31;;;23.28;58.31
80853;BME280;70270;43.434;28.338;2023-07-29T01:46:37;99821.38;;;23.32;58.53
80853;BME280;70270;43.434;28.338;2023-07-29T01:49:22;99718.75;;;22.53;59.00
80853;BME280;70270;43.434;28.338;2023-07-29T01:52:07;99824.81;;;23.19;58.96
80853;BME280;70270;43.434;28.338;2023-07-29T01:54:52;99826.88;;;23.38;58.22
80853;BME280;70270;43.434;28.338;2023-07-29T01:57:36;99829.91;;;23.36;58.44
80853;BME280;70270;43.434;28.338;2023-07-29T02:00:21;99839.00;;;23.42;58.34
80853;BME280;70270;43.434;28.338;2023-07-29T02:03:06;99827.84;;;23.52;58.11
80853;BME280;70270;43.434;28.338;2023-07-29T02:05:50;99792.91;;;23.32;58.48
80853;BME280;70270;43.434;28.338;2023-07-29T02:08:35;99826.78;;;23.19;59.61
80853;BME280;70270;43.434;28.338;2023-07-29T02:11:19;99824.47;;;23.02;60.28
80853;BME280;70270;43.434;28.338;2023-07-29T02:14:11;99822.97;;;23.15;60.12
80853;BME280;70270;43.434;28.338;2023-07-29T02:16:56;99833.13;;;23.19;60.04
80853;BME280;70270;43.434;28.338;2023-07-29T02:19:40;99832.19;;;23.00;60.71
80853;BME280;70270;43.434;28.338;2023-07-29T02:22:25;99825.59;;;22.96;61.06
80853;BME280;70270;43.434;28.338;2023-07-29T02:25:09;99827.16;;;23.07;60.77
80853;BME280;70270;43.434;28.338;2023-07-29T02:27:55;99751.84;;;22.58;60.95
80853;BME280;70270;43.434;28.338;2023-07-29T02:30:41;99736.03;;;22.34;61.65
80853;BME280;70270;43.434;28.338;2023-07-29T02:33:25;99834.72;;;22.97;61.67
80853;BME280;70270;43.434;28.338;2023-07-29T02:36:11;99753.25;;;22.55;61.35
80853;BME280;70270;43.434;28.338;2023-07-29T02:38:57;99843.91;;;22.87;62.00
80853;BME280;70270;43.434;28.338;2023-07-29T02:41:45;99829.09;;;22.68;63.00
80853;BME280;70270;43.434;28.338;2023-07-29T02:44:29;99833.28;;;22.70;62.95
80853;BME280;70270;43.434;28.338;2023-07-29T02:47:14;99836.16;;;22.89;62.45
80853;BME280;70270;43.434;28.338;2023-07-29T02:49:58;99835.91;;;22.85;62.47
80853;BME280;70270;43.434;28.338;2023-07-29T02:52:46;99825.28;;;22.64;63.27
80853;BME280;70270;43.434;28.338;2023-07-29T02:55:30;99830.31;;;22.52;63.61
80853;BME280;70270;43.434;28.338;2023-07-29T02:58:14;99815.16;;;22.49;63.51
80853;BME280;70270;43.434;28.338;2023-07-29T03:01:01;99843.03;;;22.53;64.09
80853;BME280;70270;43.434;28.338;2023-07-29T03:03:47;99833.63;;;22.54;63.34
80853;BME280;70270;43.434;28.338;2023-07-29T03:06:31;99844.03;;;22.67;62.94
80853;BME280;70270;43.434;28.338;2023-07-29T03:09:16;99814.22;;;22.69;62.73
80853;BME280;70270;43.434;28.338;2023-07-29T03:12:00;99836.31;;;22.69;63.11
80853;BME280;70270;43.434;28.338;2023-07-29T03:14:47;99838.81;;;22.60;63.05
80853;BME280;70270;43.434;28.338;2023-07-29T03:17:33;99825.28;;;22.69;62.73
80853;BME280;70270;43.434;28.338;2023-07-29T03:20:18;99835.34;;;22.45;63.05
80853;BME280;70270;43.434;28.338;2023-07-29T03:23:03;99710.34;;;21.90;62.12
80853;BME280;70270;43.434;28.338;2023-07-29T03:25:49;99838.81;;;22.70;62.03
80853;BME280;70270;43.434;28.338;2023-07-29T03:28:38;99807.44;;;22.90;60.97
80853;BME280;70270;43.434;28.338;2023-07-29T03:31:22;99830.53;;;22.99;60.26
80853;BME280;70270;43.434;28.338;2023-07-29T03:34:07;99834.63;;;22.68;60.43
80853;BME280;70270;43.434;28.338;2023-07-29T03:36:52;99830.22;;;23.06;59.49
80853;BME280;70270;43.434;28.338;2023-07-29T03:39:37;99829.13;;;23.07;59.30
80853;BME280;70270;43.434;28.338;2023-07-29T03:42:21;99828.50;;;23.44;58.46
80853;BME280;70270;43.434;28.338;2023-07-29T03:45:06;99834.84;;;23.44;57.84
80853;BME280;70270;43.434;28.338;2023-07-29T03:47:51;99839.44;;;22.91;59.65
80853;BME280;70270;43.434;28.338;2023-07-29T03:50:36;99837.59;;;23.15;59.26
80853;BME280;70270;43.434;28.338;2023-07-29T03:53:21;99736.72;;;22.50;58.90
80853;BME280;70270;43.434;28.338;2023-07-29T03:56:05;99768.69;;;22.61;59.28
80853;BME280;70270;43.434;28.338;2023-07-29T03:58:50;99749.84;;;22.34;59.24
80853;BME280;70270;43.434;28.338;2023-07-29T04:01:35;99834.59;;;22.78;60.10
80853;BME280;70270;43.434;28.338;2023-07-29T04:04:20;99847.13;;;22.99;59.00
80853;BME280;70270;43.434;28.338;2023-07-29T04:07:05;99829.19;;;22.97;58.49
80853;BME280;70270;43.434;28.338;2023-07-29T04:09:54;99834.22;;;23.52;57.66
80853;BME280;70270;43.434;28.338;2023-07-29T04:12:39;99770.91;;;23.51;56.71
80853;BME280;70270;43.434;28.338;2023-07-29T04:15:25;99845.81;;;24.26;55.33
80853;BME280;70270;43.434;28.338;2023-07-29T04:18:16;99845.31;;;24.61;53.52
80853;BME280;70270;43.434;28.338;2023-07-29T04:21:02;99838.56;;;24.67;52.87
80853;BME280;70270;43.434;28.338;2023-07-29T04:23:46;99796.03;;;24.58;53.27
80853;BME280;70270;43.434;28.338;2023-07-29T04:26:31;99847.47;;;24.45;52.50
80853;BME280;70270;43.434;28.338;2023-07-29T04:29:17;99839.97;;;24.03;54.44
80853;BME280;70270;43.434;28.338;2023-07-29T04:32:03;99843.16;;;24.15;54.56
80853;BME280;70270;43.434;28.338;2023-07-29T04:34:47;99851.50;;;24.34;54.17
80853;BME280;70270;43.434;28.338;2023-07-29T04:37:32;99855.53;;;23.99;54.20
80853;BME280;70270;43.434;28.338;2023-07-29T04:40:16;99855.72;;;23.84;54.19
80853;BME280;70270;43.434;28.338;2023-07-29T04:43:01;99813.50;;;23.50;55.14
80853;BME280;70270;43.434;28.338;2023-07-29T04:45:45;99869.50;;;23.89;54.29
80853;BME280;70270;43.434;28.338;2023-07-29T04:48:30;99863.69;;;23.91;54.04
80853;BME280;70270;43.434;28.338;2023-07-29T04:51:14;99872.63;;;24.06;53.51
80853;BME280;70270;43.434;28.338;2023-07-29T04:53:59;99836.91;;;23.28;55.34
80853;BME280;70270;43.434;28.338;2023-07-29T04:56:43;99752.44;;;23.17;53.82
80853;BME280;70270;43.434;28.338;2023-07-29T04:59:28;99852.63;;;24.09;53.08
80853;BME280;70270;43.434;28.338;2023-07-29T05:02:12;99874.00;;;24.28;52.64
80853;BME280;70270;43.434;28.338;2023-07-29T05:04:57;99880.69;;;24.27;51.53
80853;BME280;70270;43.434;28.338;2023-07-29T05:07:41;99863.78;;;24.04;52.75
80853;BME280;70270;43.434;28.338;2023-07-29T05:10:26;99882.69;;;23.97;51.34
80853;BME280;70270;43.434;28.338;2023-07-29T05:13:10;99776.50;;;23.41;51.76
80853;BME280;70270;43.434;28.338;2023-07-29T05:15:55;99881.00;;;24.25;51.09
80853;BME280;70270;43.434;28.338;2023-07-29T05:18:40;99866.16;;;24.16;50.53
80853;BME280;70270;43.434;28.338;2023-07-29T05:21:27;99877.22;;;24.16;50.39
80853;BME280;70270;43.434;28.338;2023-07-29T05:24:12;99882.88;;;24.30;50.50
80853;BME280;70270;43.434;28.338;2023-07-29T05:26:56;99882.56;;;24.07;50.19
80853;BME280;70270;43.434;28.338;2023-07-29T05:29:42;99895.69;;;23.73;51.04
80853;BME280;70270;43.434;28.338;2023-07-29T05:32:26;99890.28;;;24.10;50.05
80853;BME280;70270;43.434;28.338;2023-07-29T05:35:10;99888.91;;;24.55;49.49
80853;BME280;70270;43.434;28.338;2023-07-29T05:37:55;99787.78;;;24.15;49.10
80853;BME280;70270;43.434;28.338;2023-07-29T05:40:40;99887.31;;;25.05;47.86
80853;BME280;70270;43.434;28.338;2023-07-29T05:43:28;99877.50;;;24.57;48.64
80853;BME280;70270;43.434;28.338;2023-07-29T05:46:12;99772.16;;;23.82;49.05
80853;BME280;70270;43.434;28.338;2023-07-29T05:49:00;99884.13;;;24.18;49.63
80853;BME280;70270;43.434;28.338;2023-07-29T05:51:46;99887.03;;;24.69;48.72
80853;BME280;70270;43.434;28.338;2023-07-29T05:54:30;99897.66;;;24.62;48.37
80853;BME280;70270;43.434;28.338;2023-07-29T05:57:15;99818.56;;;24.33;48.05
80853;BME280;70270;43.434;28.338;2023-07-29T05:59:59;99899.59;;;25.18;47.59
80853;BME280;70270;43.434;28.338;2023-07-29T06:02:45;99884.56;;;25.38;46.27
80853;BME280;70270;43.434;28.338;2023-07-29T06:05:34;99887.59;;;25.23;47.38
80853;BME280;70270;43.434;28.338;2023-07-29T06:08:22;99882.50;;;25.62;46.09
80853;BME280;70270;43.434;28.338;2023-07-29T06:11:08;99884.63;;;25.33;46.67
80853;BME280;70270;43.434;28.338;2023-07-29T06:13:55;99887.13;;;25.48;45.57
80853;BME280;70270;43.434;28.338;2023-07-29T06:16:39;99885.97;;;25.54;45.70
80853;BME280;70270;43.434;28.338;2023-07-29T06:19:24;99882.06;;;25.55;45.69
80853;BME280;70270;43.434;28.338;2023-07-29T06:22:09;99892.56;;;25.58;45.95
80853;BME280;70270;43.434;28.338;2023-07-29T06:24:54;99887.50;;;25.28;45.11
80853;BME280;70270;43.434;28.338;2023-07-29T06:27:38;99885.81;;;25.13;46.13
80853;BME280;70270;43.434;28.338;2023-07-29T06:30:23;99879.28;;;25.04;45.75
80853;BME280;70270;43.434;28.338;2023-07-29T06:33:10;99870.59;;;25.43;46.33
80853;BME280;70270;43.434;28.338;2023-07-29T06:36:00;99880.56;;;25.44;46.35
80853;BME280;70270;43.434;28.338;2023-07-29T06:38:49;99885.34;;;25.57;46.97
80853;BME280;70270;43.434;28.338;2023-07-29T06:41:34;99868.00;;;25.33;46.14
80853;BME280;70270;43.434;28.338;2023-07-29T06:44:21;99762.72;;;24.44;46.96
80853;BME280;70270;43.434;28.338;2023-07-29T06:47:06;99900.31;;;24.91;48.91
80853;BME280;70270;43.434;28.338;2023-07-29T06:49:51;99888.63;;;24.94;48.60
80853;BME280;70270;43.434;28.338;2023-07-29T06:52:35;99905.97;;;24.81;49.35
80853;BME280;70270;43.434;28.338;2023-07-29T06:55:21;99890.56;;;24.75;49.89
80853;BME280;70270;43.434;28.338;2023-07-29T06:58:05;99896.41;;;24.92;50.84
80853;BME280;70270;43.434;28.338;2023-07-29T07:00:50;99886.44;;;25.24;48.86
80853;BME280;70270;43.434;28.338;2023-07-29T07:03:34;99910.28;;;25.43;48.30
80853;BME280;70270;43.434;28.338;2023-07-29T07:06:19;99837.00;;;24.98;48.66
80853;BME280;70270;43.434;28.338;2023-07-29T07:09:03;99908.22;;;25.49;47.97
80853;BME280;70270;43.434;28.338;2023-07-29T07:11:47;99891.44;;;25.40;46.44
80853;BME280;70270;43.434;28.338;2023-07-29T07:14:32;99897.38;;;25.34;47.75
80853;BME280;70270;43.434;28.338;2023-07-29T07:17:17;99887.50;;;25.28;50.37
80853;BME280;70270;43.434;28.338;2023-07-29T07:20:02;99891.13;;;24.72;49.66
80853;BME280;70270;43.434;28.338;2023-07-29T07:22:47;99895.50;;;25.15;50.60
80853;BME280;70270;43.434;28.338;2023-07-29T07:25:31;99906.59;;;25.15;48.84
80853;BME280;70270;43.434;28.338;2023-07-29T07:28:16;99898.00;;;25.31;48.13
80853;BME280;70270;43.434;28.338;2023-07-29T07:31:00;99915.69;;;25.35;47.90
80853;BME280;70270;43.434;28.338;2023-07-29T07:33:45;99886.28;;;25.34;49.35
80853;BME280;70270;43.434;28.338;2023-07-29T07:36:29;99898.53;;;25.65;47.89
80853;BME280;70270;43.434;28.338;2023-07-29T07:39:14;99904.91;;;25.66;48.04
80853;BME280;70270;43.434;28.338;2023-07-29T07:41:58;99878.09;;;25.42;49.02
80853;BME280;70270;43.434;28.338;2023-07-29T07:44:43;99908.28;;;25.44;49.06
80853;BME280;70270;43.434;28.338;2023-07-29T07:47:28;99899.56;;;25.69;49.34
80853;BME280;70270;43.434;28.338;2023-07-29T07:50:12;99901.03;;;25.15;49.36
80853;BME280;70270;43.434;28.338;2023-07-29T07:52:58;99913.50;;;24.99;50.03
80853;BME280;70270;43.434;28.338;2023-07-29T07:55:42;99901.94;;;24.92;50.45
80853;BME280;70270;43.434;28.338;2023-07-29T07:58:26;99889.22;;;24.91;51.57
80853;BME280;70270;43.434;28.338;2023-07-29T08:01:10;99895.63;;;25.56;51.21
80853;BME280;70270;43.434;28.338;2023-07-29T08:03:55;99901.84;;;25.94;47.92
80853;BME280;70270;43.434;28.338;2023-07-29T08:06:40;99804.78;;;25.62;47.31
80853;BME280;70270;43.434;28.338;2023-07-29T08:09:24;99882.31;;;26.13;45.84
80853;BME280;70270;43.434;28.338;2023-07-29T08:12:09;99910.72;;;26.37;46.83
80853;BME280;70270;43.434;28.338;2023-07-29T08:14:53;99903.25;;;26.60;46.95
80853;BME280;70270;43.434;28.338;2023-07-29T08:17:38;99862.38;;;26.25;46.10
80853;BME280;70270;43.434;28.338;2023-07-29T08:20:22;99884.16;;;26.18;46.94
80853;BME280;70270;43.434;28.338;2023-07-29T08:23:06;99878.81;;;26.07;47.34
80853;BME280;70270;43.434;28.338;2023-07-29T08:25:56;99877.84;;;25.57;49.54
80853;BME280;70270;43.434;28.338;2023-07-29T08:28:45;99848.44;;;25.10;49.58
80853;BME280;70270;43.434;28.338;2023-07-29T08:31:29;99870.97;;;25.04;51.99
80853;BME280;70270;43.434;28.338;2023-07-29T08:34:17;99863.34;;;24.77;52.46
80853;BME280;70270;43.434;28.338;2023-07-29T08:37:02;99883.69;;;24.91;51.35
80853;BME280;70270;43.434;28.338;2023-07-29T08:39:46;99876.41;;;24.95;51.47
80853;BME280;70270;43.434;28.338;2023-07-29T08:42:32;99877.34;;;25.04;53.05
80853;BME280;70270;43.434;28.338;2023-07-29T08:45:17;99867.03;;;25.24;52.14
80853;BME280;70270;43.434;28.338;2023-07-29T08:48:10;99859.13;;;25.17;50.48
80853;BME280;70270;43.434;28.338;2023-07-29T08:50:55;99870.91;;;25.41;51.11
80853;BME280;70270;43.434;28.338;2023-07-29T08:53:40;99881.78;;;25.38;51.83
80853;BME280;70270;43.434;28.338;2023-07-29T08:56:25;99862.06;;;25.72;51.93
80853;BME280;70270;43.434;28.338;2023-07-29T08:59:10;99861.63;;;25.78;51.80
80853;BME280;70270;43.434;28.338;2023-07-29T09:01:57;99853.00;;;25.80;52.78
80853;BME280;70270;43.434;28.338;2023-07-29T09:04:50;99853.00;;;25.34;53.33
80853;BME280;70270;43.434;28.338;2023-07-29T09:07:36;99840.72;;;25.07;53.83
80853;BME280;70270;43.434;28.338;2023-07-29T09:10:22;99855.69;;;25.39;52.82
80853;BME280;70270;43.434;28.338;2023-07-29T09:13:10;99857.50;;;24.97;53.35
80853;BME280;70270;43.434;28.338;2023-07-29T09:15:57;99852.03;;;24.92;52.35
80853;BME280;70270;43.434;28.338;2023-07-29T09:18:41;99868.47;;;24.89;50.86
80853;BME280;70270;43.434;28.338;2023-07-29T09:21:26;99824.09;;;24.89;52.52
80853;BME280;70270;43.434;28.338;2023-07-29T09:24:15;99743.31;;;24.63;52.19
80853;BME280;70270;43.434;28.338;2023-07-29T09:27:00;99838.56;;;25.50;50.84
80853;BME280;70270;43.434;28.338;2023-07-29T09:29:44;99845.69;;;25.97;51.69
80853;BME280;70270;43.434;28.338;2023-07-29T09:32:30;99830.47;;;26.08;50.75
80853;BME280;70270;43.434;28.338;2023-07-29T09:35:15;99844.47;;;26.03;49.81
80853;BME280;70270;43.434;28.338;2023-07-29T09:38:01;99834.38;;;25.80;49.79
80853;BME280;70270;43.434;28.338;2023-07-29T09:40:46;99796.81;;;25.42;49.89
80853;BME280;70270;43.434;28.338;2023-07-29T09:43:32;99857.84;;;26.01;49.13
80853;BME280;70270;43.434;28.338;2023-07-29T09:46:17;99744.78;;;25.20;48.71
80853;BME280;70270;43.434;28.338;2023-07-29T09:49:03;99857.16;;;25.50;48.40
80853;BME280;70270;43.434;28.338;2023-07-29T09:51:48;99839.09;;;25.20;50.20
80853;BME280;70270;43.434;28.338;2023-07-29T09:54:33;99823.34;;;24.83;51.49
80853;BME280;70270;43.434;28.338;2023-07-29T09:57:18;99819.31;;;25.27;53.19
80853;BME280;70270;43.434;28.338;2023-07-29T10:00:03;99801.22;;;24.97;51.67
80853;BME280;70270;43.434;28.338;2023-07-29T10:02:54;99827.56;;;24.99;52.79
80853;BME280;70270;43.434;28.338;2023-07-29T10:05:39;99830.31;;;24.99;54.02
80853;BME280;70270;43.434;28.338;2023-07-29T10:08:24;99827.84;;;25.44;54.92
80853;BME280;70270;43.434;28.338;2023-07-29T10:11:10;99837.84;;;25.12;55.40
80853;BME280;70270;43.434;28.338;2023-07-29T10:13:55;99831.03;;;25.37;54.95
80853;BME280;70270;43.434;28.338;2023-07-29T10:16:40;99827.94;;;25.39;53.93
80853;BME280;70270;43.434;28.338;2023-07-29T10:19:25;99817.31;;;25.13;54.94
80853;BME280;70270;43.434;28.338;2023-07-29T10:22:11;99812.81;;;25.64;54.25
80853;BME280;70270;43.434;28.338;2023-07-29T10:27:56;99834.78;;;25.28;54.93
80853;BME280;70270;43.434;28.338;2023-07-29T10:30:41;99817.94;;;24.92;57.38
80853;BME280;70270;43.434;28.338;2023-07-29T10:33:26;99827.34;;;25.42;55.22
80853;BME280;70270;43.434;28.338;2023-07-29T10:36:11;99830.06;;;25.60;55.40
80853;BME280;70270;43.434;28.338;2023-07-29T10:38:56;99835.63;;;25.74;54.78
80853;BME280;70270;43.434;28.338;2023-07-29T10:42:01;99816.50;;;25.73;56.21
80853;BME280;70270;43.434;28.338;2023-07-29T10:44:50;99828.72;;;25.58;57.25
80853;BME280;70270;43.434;28.338;2023-07-29T10:47:38;99822.06;;;25.59;56.96
80853;BME280;70270;43.434;28.338;2023-07-29T10:50:22;99824.13;;;25.67;57.39
80853;BME280;70270;43.434;28.338;2023-07-29T10:53:06;99831.69;;;26.30;57.24
80853;BME280;70270;43.434;28.338;2023-07-29T10:55:51;99769.81;;;25.47;59.74
80853;BME280;70270;43.434;28.338;2023-07-29T10:58:36;99826.91;;;25.35;61.54
80853;BME280;70270;43.434;28.338;2023-07-29T11:01:30;99822.44;;;25.52;61.53
80853;BME280;70270;43.434;28.338;2023-07-29T11:10:02;99811.56;;;25.70;58.21
80853;BME280;70270;43.434;28.338;2023-07-29T11:12:49;99812.78;;;26.04;57.48
80853;BME280;70270;43.434;28.338;2023-07-29T11:15:39;99815.88;;;25.89;55.71
80853;BME280;70270;43.434;28.338;2023-07-29T11:18:26;99808.88;;;25.78;56.68
80853;BME280;70270;43.434;28.338;2023-07-29T11:21:13;99812.38;;;25.70;57.29
80853;BME280;70270;43.434;28.338;2023-07-29T11:23:57;99805.09;;;25.88;56.77
80853;BME280;70270;43.434;28.338;2023-07-29T11:26:46;99816.56;;;26.36;55.69
80853;BME280;70270;43.434;28.338;2023-07-29T11:29:31;99814.16;;;25.80;57.83
80853;BME280;70270;43.434;28.338;2023-07-29T11:32:16;99811.94;;;26.18;57.17
80853;BME280;70270;43.434;28.338;2023-07-29T11:35:07;99806.38;;;26.04;57.05
80853;BME280;70270;43.434;28.338;2023-07-29T11:37:54;99807.34;;;25.72;57.30
80853;BME280;70270;43.434;28.338;2023-07-29T11:40:40;99815.88;;;25.89;57.25
80853;BME280;70270;43.434;28.338;2023-07-29T11:43:25;99797.47;;;25.93;57.01
80853;BME280;70270;43.434;28.338;2023-07-29T11:46:11;99722.94;;;25.87;56.38
80853;BME280;70270;43.434;28.338;2023-07-29T11:48:55;99792.16;;;26.33;56.58
80853;BME280;70270;43.434;28.338;2023-07-29T11:51:41;99806.38;;;26.18;57.03
80853;BME280;70270;43.434;28.338;2023-07-29T11:54:26;99687.28;;;25.26;56.27
80853;BME280;70270;43.434;28.338;2023-07-29T11:57:10;99791.91;;;25.93;57.92
80853;BME280;70270;43.434;28.338;2023-07-29T11:59:55;99800.47;;;25.70;57.93
80853;BME280;70270;43.434;28.338;2023-07-29T12:02:42;99768.38;;;25.77;57.72
80853;BME280;70270;43.434;28.338;2023-07-29T12:05:29;99773.13;;;25.63;57.61
80853;BME280;70270;43.434;28.338;2023-07-29T12:08:13;99789.03;;;25.57;58.55
80853;BME280;70270;43.434;28.338;2023-07-29T12:10:57;99751.69;;;25.36;58.75
80853;BME280;70270;43.434;28.338;2023-07-29T12:13:42;99791.13;;;25.79;57.76
80853;BME280;70270;43.434;28.338;2023-07-29T12:16:27;99784.44;;;25.67;58.37
80853;BME280;70270;43.434;28.338;2023-07-29T12:19:17;99809.19;;;25.90;57.27
80853;BME280;70270;43.434;28.338;2023-07-29T12:22:03;99788.94;;;25.90;57.76
80853;BME280;70270;43.434;28.338;2023-07-29T12:24:51;99812.88;;;25.72;58.02
80853;BME280;70270;43.434;28.338;2023-07-29T12:27:36;99795.72;;;25.70;58.34
80853;BME280;70270;43.434;28.338;2023-07-29T12:30:24;99783.91;;;25.78;58.61
80853;BME280;70270;43.434;28.338;2023-07-29T12:33:29;99731.25;;;25.73;57.84
80853;BME280;70270;43.434;28.338;2023-07-29T12:36:14;99805.00;;;25.79;58.75
80853;BME280;70270;43.434;28.338;2023-07-29T12:39:01;99797.16;;;25.81;58.63
80853;BME280;70270;43.434;28.338;2023-07-29T12:41:45;99815.69;;;25.58;58.39
80853;BME280;70270;43.434;28.338;2023-07-29T12:44:35;99779.94;;;25.52;58.35
80853;BME280;70270;43.434;28.338;2023-07-29T12:47:20;99793.88;;;25.66;58.56
80853;BME280;70270;43.434;28.338;2023-07-29T12:50:05;99793.25;;;25.82;58.78
80853;BME280;70270;43.434;28.338;2023-07-29T12:52:49;99710.91;;;25.37;57.99
80853;BME280;70270;43.434;28.338;2023-07-29T12:55:34;99796.34;;;25.94;58.10
80853;BME280;70270;43.434;28.338;2023-07-29T12:58:19;99710.03;;;25.55;57.28
80853;BME280;70270;43.434;28.338;2023-07-29T13:01:03;99761.81;;;25.87;58.32
80853;BME280;70270;43.434;28.338;2023-07-29T13:03:48;99687.09;;;25.63;57.44
80853;BME280;70270;43.434;28.338;2023-07-29T13:06:32;99794.25;;;26.14;58.36
80853;BME280;70270;43.434;28.338;2023-07-29T13:09:17;99804.34;;;26.59;57.75
80853;BME280;70270;43.434;28.338;2023-07-29T13:12:01;99790.75;;;26.22;58.28
80853;BME280;70270;43.434;28.338;2023-07-29T13:14:46;99808.66;;;26.16;57.89
80853;BME280;70270;43.434;28.338;2023-07-29T13:17:30;99798.34;;;26.16;58.32
80853;BME280;70270;43.434;28.338;2023-07-29T13:20:15;99812.41;;;26.47;57.97
80853;BME280;70270;43.434;28.338;2023-07-29T13:22:59;99801.25;;;26.25;58.62
80853;BME280;70270;43.434;28.338;2023-07-29T13:25:44;99718.41;;;25.77;58.13
80853;BME280;70270;43.434;28.338;2023-07-29T13:28:28;99793.66;;;25.89;59.38
80853;BME280;70270;43.434;28.338;2023-07-29T13:31:12;99804.84;;;26.61;58.37
80853;BME280;70270;43.434;28.338;2023-07-29T13:33:57;99794.34;;;26.80;57.09
80853;BME280;70270;43.434;28.338;2023-07-29T13:36:41;99776.66;;;26.54;57.27
80853;BME280;70270;43.434;28.338;2023-07-29T13:39:26;99793.72;;;26.61;57.52
80853;BME280;70270;43.434;28.338;2023-07-29T13:42:11;99789.06;;;26.92;57.29
80853;BME280;70270;43.434;28.338;2023-07-29T13:44:55;99762.91;;;26.93;57.28
80853;BME280;70270;43.434;28.338;2023-07-29T13:47:40;99765.38;;;27.48;55.61
80853;BME280;70270;43.434;28.338;2023-07-29T13:50:24;99759.19;;;27.29;55.03
80853;BME280;70270;43.434;28.338;2023-07-29T13:53:09;99794.28;;;26.85;57.00
80853;BME280;70270;43.434;28.338;2023-07-29T13:55:53;99707.84;;;26.15;56.93
80853;BME280;70270;43.434;28.338;2023-07-29T13:58:38;99783.13;;;26.63;57.16
80853;BME280;70270;43.434;28.338;2023-07-29T14:01:22;99728.38;;;25.78;58.91
80853;BME280;70270;43.434;28.338;2023-07-29T14:04:06;99791.88;;;26.21;59.95
80853;BME280;70270;43.434;28.338;2023-07-29T14:06:53;99781.47;;;26.40;58.76
80853;BME280;70270;43.434;28.338;2023-07-29T14:09:38;99797.59;;;26.74;57.69
80853;BME280;70270;43.434;28.338;2023-07-29T14:12:22;99778.16;;;26.38;57.71
80853;BME280;70270;43.434;28.338;2023-07-29T14:15:07;99794.63;;;26.48;58.45
80853;BME280;70270;43.434;28.338;2023-07-29T14:17:52;99788.88;;;26.17;58.09
80853;BME280;70270;43.434;28.338;2023-07-29T14:20:37;99789.13;;;26.21;59.28
80853;BME280;70270;43.434;28.338;2023-07-29T14:23:21;99782.13;;;26.23;58.69
80853;BME280;70270;43.434;28.338;2023-07-29T14:26:05;99777.34;;;26.37;58.38
80853;BME280;70270;43.434;28.338;2023-07-29T14:28:50;99730.72;;;25.98;58.36
80853;BME280;70270;43.434;28.338;2023-07-29T14:31:34;99802.78;;;26.17;59.98
80853;BME280;70270;43.434;28.338;2023-07-29T14:34:19;99702.00;;;25.67;58.93
80853;BME280;70270;43.434;28.338;2023-07-29T14:37:04;99713.69;;;25.37;59.67
80853;BME280;70270;43.434;28.338;2023-07-29T14:39:48;99781.75;;;25.75;60.29
80853;BME280;70270;43.434;28.338;2023-07-29T14:42:33;99697.66;;;25.34;59.46